Time;durP1;ratioP1;P1;durP2;ratioP2;P2;SDS_P1;SDS_P2;PMS_P1;PMS_P2;Temp;Humidity;BMP_temperature;BMP_pressure;BME280_temperature;BME280_humidity;BME280_pressure;Samples;Min_cycle;Max_cycle;Signal;HPM_P1;HPM_P2
2022/05/18 00:00:48;;;;;;;;;;;;;;;;;;5033369;28;20044;-68
2022/05/18 00:03:15;;;;;;;27.77;26.30;;;;;;;;;;5034255;28;19917;-69
2022/05/18 00:05:41;;;;;;;28.60;27.10;;;;;;;;;;5036675;28;20033;-69
2022/05/18 00:08:07;;;;;;;25.70;24.30;;;;;;;;;;5031838;28;20414;-69
2022/05/18 00:10:35;;;;;;;18.38;17.38;;;;;;;;;;5034369;28;20521;-68
2022/05/18 00:13:01;;;;;;;18.60;17.60;;;;;;;;;;5031884;28;20111;-68
2022/05/18 00:15:27;;;;;;;19.33;18.27;;;;;;;;;;5038345;28;20037;-68
2022/05/18 00:17:52;;;;;;;15.50;14.60;;;;;;;;;;5036977;28;20112;-69
2022/05/18 00:20:18;;;;;;;15.73;14.73;;;;;;;;;;5030138;28;20128;-68
2022/05/18 00:22:46;;;;;;;13.45;12.65;;;;;;;;;;5031775;28;20061;-69
2022/05/18 00:25:13;;;;;;;14.80;13.93;;;;;;;;;;5034772;28;20060;-69
2022/05/18 00:27:38;;;;;;;15.30;14.40;;;;;;;;;;5020339;28;20478;-69
2022/05/18 00:30:04;;;;;;;16.05;15.15;;;;;;;;;;5033031;28;20112;-69
2022/05/18 00:32:30;;;;;;;16.58;15.65;;;;;;;;;;5036348;28;20072;-68
2022/05/18 00:34:55;;;;;;;18.73;17.63;;;;;;;;;;5031581;28;20057;-68
2022/05/18 00:37:20;;;;;;;13.77;12.88;;;;;;;;;;5036600;28;20040;-68
2022/05/18 00:39:46;;;;;;;17.23;16.23;;;;;;;;;;5037968;28;20028;-67
2022/05/18 00:42:19;;;;;;;13.60;12.80;;;;;;;;;;5034537;28;20037;-68
2022/05/18 00:44:45;;;;;;;14.25;13.45;;;;;;;;;;5034355;28;20039;-67
2022/05/18 00:47:10;;;;;;;14.27;13.48;;;;;;;;;;5035005;28;20029;-68
2022/05/18 00:49:36;;;;;;;15.20;14.30;;;;;;;;;;5032870;28;20040;-67
2022/05/18 00:52:01;;;;;;;18.73;17.60;;;;;;;;;;5032311;28;20044;-67
2022/05/18 00:54:30;;;;;;;15.90;15.00;;;;;;;;;;5029247;28;20137;-68
2022/05/18 00:57:05;;;;;;;15.48;14.57;;;;;;;;;;5039551;28;20029;-68
2022/05/18 00:59:37;;;;;;;24.10;22.80;;;;;;;;;;5037906;28;20151;-68
2022/05/18 01:02:04;;;;;;;20.23;19.13;;;;;;;;;;5033279;28;20124;-68
2022/05/18 01:04:29;;;;;;;19.35;18.25;;;;;;;;;;5033532;28;20037;-68
2022/05/18 01:07:05;;;;;;;23.85;22.50;;;;;;;;;;5032931;28;20131;-68
2022/05/18 01:09:40;;;;;;;18.45;17.35;;;;;;;;;;5036744;28;20033;-68
2022/05/18 01:12:09;;;;;;;18.95;17.92;;;;;;;;;;5035839;28;20475;-67
2022/05/18 01:14:39;;;;;;;18.38;17.35;;;;;;;;;;5035485;28;20876;-68
2022/05/18 01:17:05;;;;;;;15.85;14.95;;;;;;;;;;5037292;28;20037;-68
2022/05/18 01:19:46;;;;;;;15.52;14.63;;;;;;;;;;5034190;28;20303;-68
2022/05/18 01:22:17;;;;;;;16.90;15.93;;;;;;;;;;5032296;28;20044;-68
2022/05/18 01:24:58;;;;;;;13.40;12.60;;;;;;;;;;5033975;28;20458;-68
2022/05/18 01:27:25;;;;;;;15.27;14.40;;;;;;;;;;5034159;28;20071;-68
2022/05/18 01:29:51;;;;;;;16.45;15.52;;;;;;;;;;5034660;28;20107;-68
2022/05/18 01:32:17;;;;;;;15.82;14.93;;;;;;;;;;5033378;28;20035;-68
2022/05/18 01:34:42;;;;;;;15.25;14.35;;;;;;;;;;5028858;28;20116;-67
2022/05/18 01:37:09;;;;;;;13.55;12.75;;;;;;;;;;5036791;28;20028;-67
2022/05/18 01:39:40;;;;;;;15.18;14.27;;;;;;;;;;5034861;28;20466;-68
2022/05/18 01:42:06;;;;;;;;;;;;;;;;;;5033012;28;20094;-68
2022/05/18 01:44:37;;;;;;;13.95;13.15;;;;;;;;;;5031217;28;19917;-68
2022/05/18 01:47:03;;;;;;;16.83;15.52;;;;;;;;;;5031826;28;20036;-68
2022/05/18 01:49:28;;;;;;;14.98;14.10;;;;;;;;;;5032319;28;20046;-68
2022/05/18 01:51:57;;;;;;;13.32;12.52;;;;;;;;;;5033114;28;20055;-67
2022/05/18 01:54:23;;;;;;;14.70;13.88;;;;;;;;;;5030888;28;20462;-67
2022/05/18 01:56:48;;;;;;;13.98;13.18;;;;;;;;;;5029944;28;20111;-67
2022/05/18 01:59:13;;;;;;;13.13;12.32;;;;;;;;;;5031613;28;20037;-67
2022/05/18 02:01:39;;;;;;;13.20;12.40;;;;;;;;;;5026981;28;20041;-69
2022/05/18 02:04:05;;;;;;;13.43;12.63;;;;;;;;;;5027926;28;20026;-68
2022/05/18 02:06:34;;;;;;;18.98;17.85;;;;;;;;;;5034243;28;20037;-68
2022/05/18 02:09:01;;;;;;;15.88;14.98;;;;;;;;;;5031267;28;20029;-68
2022/05/18 02:11:26;;;;;;;16.88;15.93;;;;;;;;;;5032015;28;20114;-68
2022/05/18 02:13:52;;;;;;;14.70;13.80;;;;;;;;;;5030986;28;20061;-68
2022/05/18 02:16:19;;;;;;;16.48;15.57;;;;;;;;;;5036388;28;20071;-68
2022/05/18 02:18:44;;;;;;;17.08;16.13;;;;;;;;;;5033691;28;20807;-68
2022/05/18 02:21:11;;;;;;;19.13;18.02;;;;;;;;;;5032965;28;20025;-67
2022/05/18 02:23:38;;;;;;;16.65;15.73;;;;;;;;;;5028986;28;20040;-68
2022/05/18 02:26:12;;;;;;;16.40;15.40;;;;;;;;;;5032965;28;20022;-68
2022/05/18 02:28:38;;;;;;;15.73;14.65;;;;;;;;;;5029019;28;20056;-68
2022/05/18 02:31:03;;;;;;;14.70;13.85;;;;;;;;;;5031136;28;20401;-67
2022/05/18 02:33:29;;;;;;;15.65;14.75;;;;;;;;;;5027092;28;20041;-67
2022/05/18 02:35:54;;;;;;;17.25;16.25;;;;;;;;;;5029867;28;20076;-68
2022/05/18 02:38:20;;;;;;;16.38;15.45;;;;;;;;;;5032280;28;20037;-68
2022/05/18 02:40:45;;;;;;;16.70;15.77;;;;;;;;;;5031359;28;20064;-68
2022/05/18 02:43:11;;;;;;;15.00;14.10;;;;;;;;;;5032420;28;20606;-68
2022/05/18 02:45:36;;;;;;;14.80;13.90;;;;;;;;;;5032124;28;20427;-68
2022/05/18 02:48:01;;;;;;;17.33;16.33;;;;;;;;;;5034173;28;20090;-67
2022/05/18 02:50:28;;;;;;;16.17;15.25;;;;;;;;;;5030514;28;20033;-67
2022/05/18 02:52:53;;;;;;;16.10;15.07;;;;;;;;;;5030419;28;20037;-67
2022/05/18 02:58:03;;;;;;;17.20;16.20;;;;;;;;;;5030702;28;20404;-68
2022/05/18 03:00:28;;;;;;;14.65;13.85;;;;;;;;;;5032230;28;20722;-67
2022/05/18 03:02:54;;;;;;;14.63;13.60;;;;;;;;;;5031340;28;20372;-68
2022/05/18 03:05:20;;;;;;;14.63;13.73;;;;;;;;;;5029235;28;20060;-68
2022/05/18 03:07:45;;;;;;;14.75;13.88;;;;;;;;;;5032944;28;20068;-67
2022/05/18 03:10:15;;;;;;;14.20;13.40;;;;;;;;;;5031191;28;20122;-67
2022/05/18 03:12:41;;;;;;;15.10;14.20;;;;;;;;;;5032478;28;20370;-67
2022/05/18 03:15:07;;;;;;;15.70;14.73;;;;;;;;;;5036548;28;20041;-68
2022/05/18 03:17:32;;;;;;;15.82;14.73;;;;;;;;;;5036214;28;20387;-68
2022/05/18 03:19:58;;;;;;;15.45;12.50;;;;;;;;;;5033022;28;20080;-67
2022/05/18 03:25:07;;;;;;;13.93;13.13;;;;;;;;;;5035028;28;20060;-67
2022/05/18 03:27:32;;;;;;;15.55;14.55;;;;;;;;;;5033854;28;20491;-67
2022/05/18 03:29:58;;;;;;;14.90;14.00;;;;;;;;;;5035299;28;20111;-67
2022/05/18 03:32:23;;;;;;;13.85;13.05;;;;;;;;;;5036768;28;20037;-67
2022/05/18 03:34:50;;;;;;;15.18;14.27;;;;;;;;;;5033650;28;20133;-68
2022/05/18 03:37:17;;;;;;;14.95;14.07;;;;;;;;;;5032918;28;20025;-67
2022/05/18 03:39:43;;;;;;;14.95;14.05;;;;;;;;;;5033734;28;20463;-67
2022/05/18 03:42:09;;;;;;;13.68;12.77;;;;;;;;;;5035168;28;20037;-67
2022/05/18 03:44:34;;;;;;;14.77;13.90;;;;;;;;;;5031642;28;20474;-67
2022/05/18 03:46:59;;;;;;;13.32;12.52;;;;;;;;;;5037554;28;20147;-67
2022/05/18 03:49:25;;;;;;;15.55;14.55;;;;;;;;;;5034277;28;20057;-67
2022/05/18 03:51:50;;;;;;;13.82;12.68;;;;;;;;;;5036705;28;20029;-67
2022/05/18 03:54:16;;;;;;;15.18;14.27;;;;;;;;;;5032219;28;20041;-67
2022/05/18 03:56:41;;;;;;;12.00;11.30;;;;;;;;;;5032976;28;20466;-67
2022/05/18 03:59:07;;;;;;;15.25;14.35;;;;;;;;;;5037882;28;20577;-67
2022/05/18 04:01:32;;;;;;;14.23;13.32;;;;;;;;;;5035807;28;21186;-66
2022/05/18 04:03:57;;;;;;;13.20;12.38;;;;;;;;;;5034263;28;20040;-68
2022/05/18 04:06:23;;;;;;;12.90;12.10;;;;;;;;;;5033666;28;20032;-67
2022/05/18 04:08:49;;;;;;;12.35;11.65;;;;;;;;;;5033657;28;20052;-67
2022/05/18 04:11:15;;;;;;;13.77;12.98;;;;;;;;;;5038435;28;20359;-67
2022/05/18 04:13:41;;;;;;;13.18;12.38;;;;;;;;;;5034505;28;20035;-67
2022/05/18 04:16:08;;;;;;;11.45;10.75;;;;;;;;;;5035274;28;20044;-68
2022/05/18 04:18:34;;;;;;;11.68;10.95;;;;;;;;;;5032460;28;20040;-67
2022/05/18 04:21:00;;;;;;;12.88;12.07;;;;;;;;;;5035484;28;20041;-67
2022/05/18 04:23:26;;;;;;;14.02;13.02;;;;;;;;;;5034089;28;20072;-68
2022/05/18 04:25:53;;;;;;;14.05;13.15;;;;;;;;;;5037493;28;20043;-67
2022/05/18 04:28:19;;;;;;;14.07;13.27;;;;;;;;;;5031105;28;20066;-67
2022/05/18 04:30:46;;;;;;;14.75;13.75;;;;;;;;;;5036496;28;20722;-67
2022/05/18 04:33:18;;;;;;;14.48;13.57;;;;;;;;;;5033848;28;20047;-67
2022/05/18 04:35:44;;;;;;;14.07;13.27;;;;;;;;;;5033369;28;20045;-67
2022/05/18 04:38:09;;;;;;;14.80;13.93;;;;;;;;;;5033963;28;20044;-67
2022/05/18 04:40:35;;;;;;;15.00;14.10;;;;;;;;;;5034524;28;20037;-68
2022/05/18 04:43:01;;;;;;;13.63;12.82;;;;;;;;;;5035643;28;20478;-67
2022/05/18 04:45:26;;;;;;;13.68;12.88;;;;;;;;;;5039104;28;20037;-68
2022/05/18 04:47:52;;;;;;;13.40;12.50;;;;;;;;;;5032059;28;20479;-68
2022/05/18 04:50:19;;;;;;;13.27;12.48;;;;;;;;;;5032517;28;20343;-67
2022/05/18 04:52:45;;;;;;;13.52;12.60;;;;;;;;;;5018759;28;20127;-67
2022/05/18 04:55:11;;;;;;;13.32;12.52;;;;;;;;;;5037638;28;20104;-67
2022/05/18 04:57:36;;;;;;;13.20;12.35;;;;;;;;;;5033783;28;20037;-67
2022/05/18 05:00:07;;;;;;;13.02;12.18;;;;;;;;;;5034914;28;20483;-67
2022/05/18 05:02:35;;;;;;;;;;;;;;;;;;5034840;28;20033;-68
2022/05/18 05:05:01;;;;;;;13.95;13.15;;;;;;;;;;5033765;28;19970;-67
2022/05/18 05:07:27;;;;;;;13.68;12.88;;;;;;;;;;5034608;28;20045;-67
2022/05/18 05:09:52;;;;;;;14.00;13.20;;;;;;;;;;5033535;28;20052;-67
2022/05/18 05:12:18;;;;;;;12.30;11.60;;;;;;;;;;5034673;28;20048;-68
2022/05/18 05:14:44;;;;;;;13.27;12.20;;;;;;;;;;5030953;28;20053;-68
2022/05/18 05:17:10;;;;;;;12.45;11.65;;;;;;;;;;5032821;28;20044;-67
2022/05/18 05:19:36;;;;;;;12.07;11.38;;;;;;;;;;5031771;28;20033;-68
2022/05/18 05:22:02;;;;;;;11.70;11.00;;;;;;;;;;5020115;28;20033;-67
2022/05/18 05:24:27;;;;;;;11.95;11.25;;;;;;;;;;5034940;28;20040;-68
2022/05/18 05:26:53;;;;;;;12.23;11.30;;;;;;;;;;5033221;28;20032;-67
2022/05/18 05:29:20;;;;;;;11.60;10.90;;;;;;;;;;5035804;28;20343;-68
2022/05/18 05:31:46;;;;;;;11.30;10.60;;;;;;;;;;5033888;28;20450;-67
2022/05/18 05:34:11;;;;;;;12.85;11.88;;;;;;;;;;5032369;28;20027;-67
2022/05/18 05:36:37;;;;;;;12.32;11.52;;;;;;;;;;5035805;28;20120;-68
2022/05/18 05:39:03;;;;;;;11.10;10.40;;;;;;;;;;5032383;28;20029;-67
2022/05/18 05:41:28;;;;;;;10.52;9.82;;;;;;;;;;5032294;28;20490;-67
2022/05/18 05:43:55;;;;;;;10.52;9.82;;;;;;;;;;5035964;28;20039;-67
2022/05/18 05:46:21;;;;;;;9.52;8.93;;;;;;;;;;5036243;28;21080;-67
2022/05/18 05:48:46;;;;;;;11.65;10.95;;;;;;;;;;5032515;28;20063;-67
2022/05/18 05:51:13;;;;;;;10.52;9.77;;;;;;;;;;5032399;28;20079;-65
2022/05/18 05:53:43;;;;;;;10.23;9.63;;;;;;;;;;5033153;28;20028;-61
2022/05/18 05:56:10;;;;;;;10.98;10.27;;;;;;;;;;5030294;28;20030;-60
2022/05/18 05:58:36;;;;;;;10.68;9.98;;;;;;;;;;5035080;28;20040;-61
2022/05/18 06:01:07;;;;;;;10.73;10.02;;;;;;;;;;5035657;28;20033;-60
2022/05/18 06:03:33;;;;;;;11.80;11.10;;;;;;;;;;5033109;28;20037;-60
2022/05/18 06:06:00;;;;;;;11.77;10.98;;;;;;;;;;5030520;28;20426;-60
2022/05/18 06:08:26;;;;;;;11.43;10.73;;;;;;;;;;5038472;28;20120;-60
2022/05/18 06:10:52;;;;;;;12.07;11.18;;;;;;;;;;5032569;28;20106;-60
2022/05/18 06:13:18;;;;;;;10.80;10.10;;;;;;;;;;5030770;28;20039;-60
2022/05/18 06:15:43;;;;;;;11.55;10.82;;;;;;;;;;5036800;28;20399;-60
2022/05/18 06:18:09;;;;;;;11.25;10.55;;;;;;;;;;5035166;28;20037;-60
2022/05/18 06:20:34;;;;;;;11.75;11.05;;;;;;;;;;5029571;28;20095;-60
2022/05/18 06:23:04;;;;;;;12.73;11.93;;;;;;;;;;5033165;28;20037;-60
2022/05/18 06:25:29;;;;;;;13.52;12.73;;;;;;;;;;5031352;28;20105;-60
2022/05/18 06:27:55;;;;;;;14.00;13.20;;;;;;;;;;5031518;28;20104;-67
2022/05/18 06:30:22;;;;;;;13.70;12.90;;;;;;;;;;5030155;28;20033;-60
2022/05/18 06:32:47;;;;;;;15.73;14.73;;;;;;;;;;5033232;28;20040;-60
2022/05/18 06:35:13;;;;;;;16.05;15.15;;;;;;;;;;5033316;28;20045;-60
2022/05/18 06:37:38;;;;;;;15.73;14.82;;;;;;;;;;5033861;28;20061;-60
2022/05/18 06:40:06;;;;;;;14.88;14.02;;;;;;;;;;5030920;28;20037;-61
2022/05/18 06:42:32;;;;;;;16.58;15.57;;;;;;;;;;5032205;28;20045;-61
2022/05/18 06:44:59;;;;;;;16.90;15.90;;;;;;;;;;5032115;28;20120;-61
2022/05/18 06:47:25;;;;;;;18.10;16.90;;;;;;;;;;5035396;28;20065;-61
2022/05/18 06:49:51;;;;;;;19.15;18.10;;;;;;;;;;5028135;28;20400;-61
2022/05/18 06:52:18;;;;;;;17.30;16.30;;;;;;;;;;5034175;28;20065;-61
2022/05/18 06:54:44;;;;;;;18.30;17.30;;;;;;;;;;5030794;28;20033;-61
2022/05/18 06:57:10;;;;;;;20.40;19.25;;;;;;;;;;5031259;28;20021;-61
2022/05/18 06:59:36;;;;;;;23.73;22.42;;;;;;;;;;5031428;28;20151;-61
2022/05/18 07:02:02;;;;;;;22.80;21.60;;;;;;;;;;5030743;28;20056;-68
2022/05/18 07:04:28;;;;;;;28.42;26.92;;;;;;;;;;5032284;28;20455;-67
2022/05/18 07:06:54;;;;;;;25.55;24.08;;;;;;;;;;5034486;28;20041;-68
2022/05/18 07:09:21;;;;;;;20.63;19.52;;;;;;;;;;5033648;28;20041;-68
2022/05/18 07:11:49;;;;;;;31.60;29.80;;;;;;;;;;5031456;28;20136;-68
2022/05/18 07:14:17;;;;;;;34.35;32.55;;;;;;;;;;5031613;28;20348;-68
2022/05/18 07:16:43;;;;;;;32.80;30.60;;;;;;;;;;5029917;28;20033;-69
2022/05/18 07:19:09;;;;;;;42.17;40.00;;;;;;;;;;5033865;28;20040;-68
2022/05/18 07:21:35;;;;;;;44.60;42.30;;;;;;;;;;5031722;28;20036;-68
2022/05/18 07:24:00;;;;;;;35.65;33.72;;;;;;;;;;5031387;28;20090;-68
2022/05/18 07:26:27;;;;;;;46.55;44.15;;;;;;;;;;5031393;28;20124;-68
2022/05/18 07:28:53;;;;;;;50.65;48.05;;;;;;;;;;5031057;28;20041;-68
2022/05/18 07:31:21;;;;;;;53.03;50.33;;;;;;;;;;5033623;28;20029;-68
2022/05/18 07:33:47;;;;;;;50.30;47.75;;;;;;;;;;5046161;28;20048;-68
2022/05/18 07:36:14;;;;;;;44.10;41.80;;;;;;;;;;5034427;28;20101;-68
2022/05/18 07:38:40;;;;;;;18.75;17.73;;;;;;;;;;5033742;28;20111;-68
2022/05/18 07:41:07;;;;;;;13.93;13.13;;;;;;;;;;5030319;28;20108;-68
2022/05/18 07:43:33;;;;;;;17.45;16.45;;;;;;;;;;5032315;28;20041;-68
2022/05/18 07:45:58;;;;;;;19.67;18.60;;;;;;;;;;5035700;28;20120;-68
2022/05/18 07:48:24;;;;;;;22.33;20.95;;;;;;;;;;5033755;28;20046;-69
2022/05/18 07:50:50;;;;;;;28.13;26.63;;;;;;;;;;5036704;28;20485;-69
2022/05/18 07:53:15;;;;;;;23.50;22.25;;;;;;;;;;5034228;28;20029;-69
2022/05/18 07:55:41;;;;;;;36.90;34.97;;;;;;;;;;5033495;28;20037;-68
2022/05/18 07:58:10;;;;;;;45.33;43.03;;;;;;;;;;5029981;28;20117;-68
2022/05/18 08:00:36;;;;;;;25.07;23.77;;;;;;;;;;5035712;28;20037;-68
2022/05/18 08:03:02;;;;;;;32.50;30.80;;;;;;;;;;5036909;28;20087;-69
2022/05/18 08:05:30;;;;;;;26.08;24.67;;;;;;;;;;5033074;28;20603;-69
2022/05/18 08:07:56;;;;;;;43.95;41.70;;;;;;;;;;5038781;28;20143;-68
2022/05/18 08:15:50;;;;;;;70.13;66.63;;;;;;;;;;5032160;28;20550;-68
2022/05/18 08:18:20;;;;;;;70.38;66.85;;;;;;;;;;5032983;28;20108;-68
2022/05/18 08:20:46;;;;;;;67.28;63.92;;;;;;;;;;5034650;28;20038;-68
2022/05/18 08:23:12;;;;;;;87.90;83.57;;;;;;;;;;5034433;28;20140;-69
2022/05/18 08:25:38;;;;;;;79.53;75.57;;;;;;;;;;5039999;28;20637;-69
2022/05/18 08:28:05;;;;;;;45.17;42.83;;;;;;;;;;5035608;28;20040;-69
2022/05/18 08:30:31;;;;;;;86.00;81.70;;;;;;;;;;5030866;28;20037;-69
2022/05/18 08:33:00;;;;;;;62.50;59.33;;;;;;;;;;5036033;28;20133;-70
2022/05/18 08:35:27;;;;;;;94.78;90.05;;;;;;;;;;5036338;28;20045;-69
2022/05/18 08:37:53;;;;;;;52.13;49.47;;;;;;;;;;5034095;28;20065;-70
2022/05/18 08:40:30;;;;;;;58.92;55.63;;;;;;;;;;5038009;28;20043;-68
2022/05/18 08:43:02;;;;;;;61.95;58.85;;;;;;;;;;5036692;28;20766;-68
2022/05/18 08:45:34;;;;;;;84.47;80.15;;;;;;;;;;5036990;28;20502;-68
2022/05/18 08:48:05;;;;;;;174.02;165.50;;;;;;;;;;5037965;28;20033;-70
2022/05/18 08:50:32;;;;;;;92.30;87.65;;;;;;;;;;5035025;28;20037;-69
2022/05/18 08:53:35;;;;;;;119.22;113.20;;;;;;;;;;5032148;28;20056;-68
2022/05/18 08:56:08;;;;;;;56.13;53.30;;;;;;;;;;5034148;28;20108;-68
2022/05/18 08:58:51;;;;;;;60.72;57.67;;;;;;;;;;5029882;28;20029;-67
2022/05/18 09:01:29;;;;;;;55.00;52.22;;;;;;;;;;5032619;28;20029;-67
2022/05/18 09:04:20;;;;;;;53.42;50.72;;;;;;;;;;5031620;28;20022;-67
2022/05/18 09:06:59;;;;;;;50.03;47.42;;;;;;;;;;5032818;28;20466;-67
2022/05/18 09:12:34;;;;;;;127.10;120.72;;;;;;;;;;5034649;28;20705;-67
2022/05/18 09:15:03;;;;;;;83.03;78.85;;;;;;;;;;5033832;28;20033;-68
2022/05/18 09:17:59;;;;;;;64.43;61.22;;;;;;;;;;5032747;28;20045;-68
2022/05/18 09:21:15;;;;;;;90.65;86.13;;;;;;;;;;5033212;28;20090;-68
2022/05/18 09:23:54;;;;;;;59.33;56.33;;;;;;;;;;5015583;28;20060;-68
2022/05/18 09:26:48;;;;;;;92.20;87.57;;;;;;;;;;5033978;28;20033;-68
2022/05/18 09:29:19;;;;;;;69.00;65.53;;;;;;;;;;5034874;28;20025;-67
2022/05/18 09:31:50;;;;;;;66.57;63.17;;;;;;;;;;5034674;28;20030;-68
2022/05/18 09:34:31;;;;;;;64.63;61.28;;;;;;;;;;5034741;28;20043;-68
2022/05/18 09:37:21;;;;;;;69.20;64.90;;;;;;;;;;5034543;28;20115;-68
2022/05/18 09:39:53;;;;;;;77.50;73.63;;;;;;;;;;5014680;28;20079;-69
2022/05/18 09:42:23;;;;;;;78.68;74.75;;;;;;;;;;5033629;28;20041;-68
2022/05/18 09:45:05;;;;;;;195.73;186.07;;;;;;;;;;5033307;28;20037;-67
2022/05/18 09:47:37;;;;;;;98.90;93.63;;;;;;;;;;5032446;28;20044;-68
2022/05/18 09:50:06;;;;;;;92.38;87.78;;;;;;;;;;5032127;28;20030;-67
2022/05/18 09:52:34;;;;;;;106.43;101.18;;;;;;;;;;5034769;28;20032;-67
2022/05/18 09:55:01;;;;;;;113.85;108.25;;;;;;;;;;5030839;28;20183;-67
2022/05/18 09:57:32;;;;;;;119.35;113.40;;;;;;;;;;5035192;28;20639;-67
2022/05/18 10:00:05;;;;;;;133.32;126.63;;;;;;;;;;5031420;28;20206;-67
2022/05/18 10:08:10;;;;;;;152.70;145.25;;;;;;;;;;5032243;28;20029;-67
2022/05/18 10:10:38;;;;;;;160.45;152.65;;;;;;;;;;5017387;28;20076;-67
2022/05/18 10:13:12;;;;;;;147.95;140.63;;;;;;;;;;5035318;28;20041;-68
2022/05/18 10:15:41;;;;;;;147.07;139.85;;;;;;;;;;5031838;28;20037;-67
2022/05/18 10:18:15;;;;;;;154.07;146.52;;;;;;;;;;5029428;28;20029;-67
2022/05/18 10:20:42;;;;;;;144.45;137.30;;;;;;;;;;5030525;28;20041;-67
2022/05/18 10:24:03;;;;;;;177.90;169.23;;;;;;;;;;5032291;28;20028;-67
2022/05/18 10:26:36;;;;;;;163.50;155.52;;;;;;;;;;5039872;28;20099;-67
2022/05/18 10:29:23;;;;;;;168.55;160.30;;;;;;;;;;5027825;28;20037;-67
2022/05/18 10:32:27;;;;;;;138.27;131.40;;;;;;;;;;5036843;28;20051;-68
2022/05/18 10:34:54;;;;;;;157.18;149.50;;;;;;;;;;5017751;28;20057;-67
2022/05/18 10:37:35;;;;;;;191.98;182.68;;;;;;;;;;5028861;28;20045;-68
2022/05/18 10:40:10;;;;;;;202.48;192.65;;;;;;;;;;5032318;28;20041;-67
2022/05/18 10:42:47;;;;;;;99.07;94.18;;;;;;;;;;5033842;28;20110;-67
2022/05/18 10:45:32;;;;;;;144.25;137.13;;;;;;;;;;5033783;28;20029;-67
2022/05/18 10:48:16;;;;;;;115.50;109.80;;;;;;;;;;5030871;28;20069;-67
2022/05/18 10:50:42;;;;;;;88.07;83.68;;;;;;;;;;5028663;28;20032;-67
2022/05/18 10:53:15;;;;;;;53.17;50.47;;;;;;;;;;5031252;28;20100;-67
2022/05/18 10:55:58;;;;;;;45.05;42.67;;;;;;;;;;5032625;28;20068;-64
2022/05/18 10:58:32;;;;;;;37.47;35.58;;;;;;;;;;5031861;28;20048;-65
2022/05/18 11:01:24;;;;;;;42.30;40.10;;;;;;;;;;5029427;28;20060;-65
2022/05/18 11:04:05;;;;;;;47.38;44.90;;;;;;;;;;5028418;28;20030;-66
2022/05/18 11:06:37;;;;;;;43.40;41.20;;;;;;;;;;5033559;28;20098;-65
2022/05/18 11:09:15;;;;;;;43.53;41.33;;;;;;;;;;5032314;28;20407;-63
2022/05/18 11:12:00;;;;;;;47.60;45.17;;;;;;;;;;5034627;28;20044;-65
2022/05/18 11:14:31;;;;;;;52.85;50.15;;;;;;;;;;5029070;28;20025;-66
2022/05/18 11:17:23;;;;;;;51.92;49.33;;;;;;;;;;5028120;28;20133;-66
2022/05/18 11:19:54;;;;;;;68.80;65.28;;;;;;;;;;5031938;28;20106;-67
2022/05/18 11:22:29;;;;;;;36.70;34.80;;;;;;;;;;5031445;28;20033;-65
2022/05/18 11:25:09;;;;;;;36.80;34.90;;;;;;;;;;5033709;28;20029;-65
2022/05/18 11:27:53;;;;;;;36.40;34.50;;;;;;;;;;5032493;28;20036;-65
2022/05/18 11:30:36;;;;;;;81.38;77.25;;;;;;;;;;5033734;28;20072;-66
2022/05/18 11:33:20;;;;;;;103.93;98.70;;;;;;;;;;5028181;28;20453;-64
2022/05/18 11:36:03;;;;;;;151.18;143.70;;;;;;;;;;5032727;28;20705;-65
2022/05/18 11:38:31;;;;;;;166.75;158.45;;;;;;;;;;5036081;28;20402;-65
2022/05/18 11:41:20;;;;;;;176.68;167.88;;;;;;;;;;5036358;28;20128;-65
2022/05/18 11:44:04;;;;;;;151.65;144.00;;;;;;;;;;5034519;28;20121;-65
2022/05/18 11:46:39;;;;;;;207.45;197.18;;;;;;;;;;5029731;28;20625;-64
2022/05/18 11:49:04;;;;;;;183.63;174.52;;;;;;;;;;5037840;28;20462;-64
2022/05/18 11:51:32;;;;;;;197.68;187.73;;;;;;;;;;5036479;28;20037;-66
2022/05/18 11:54:29;;;;;;;100.15;95.10;;;;;;;;;;5035304;28;20084;-65
2022/05/18 11:57:20;;;;;;;150.32;142.90;;;;;;;;;;5031841;28;20043;-64
2022/05/18 12:00:46;;;;;;;108.40;102.97;;;;;;;;;;5035167;28;20041;-65
2022/05/18 12:03:44;;;;;;;158.10;150.23;;;;;;;;;;5007731;28;20049;-64
2022/05/18 12:06:46;;;;;;;142.45;135.32;;;;;;;;;;5002138;28;20041;-65
2022/05/18 12:09:34;;;;;;;88.25;83.75;;;;;;;;;;5024163;28;20052;-65
2022/05/18 12:12:33;;;;;;;117.13;111.30;;;;;;;;;;5037240;28;20029;-64
2022/05/18 12:15:37;;;;;;;152.80;145.20;;;;;;;;;;5029862;28;20026;-65
2022/05/18 12:18:14;;;;;;;176.65;167.90;;;;;;;;;;5010952;28;20030;-65
2022/05/18 12:20:52;;;;;;;166.88;158.60;;;;;;;;;;5033190;28;20032;-65
2022/05/18 12:23:22;;;;;;;115.43;109.65;;;;;;;;;;5034376;28;20049;-64
2022/05/18 12:25:48;;;;;;;161.60;153.60;;;;;;;;;;5032458;28;20061;-64
2022/05/18 12:28:14;;;;;;;179.40;170.57;;;;;;;;;;5035204;28;20473;-65
2022/05/18 12:30:41;;;;;;;161.18;153.20;;;;;;;;;;5034944;28;20544;-65
2022/05/18 12:33:08;;;;;;;156.07;148.30;;;;;;;;;;5033288;28;20033;-64
2022/05/18 12:35:56;;;;;;;89.10;84.60;;;;;;;;;;5035688;28;20502;-65
2022/05/18 12:38:28;;;;;;;149.20;141.82;;;;;;;;;;5018151;28;20080;-64
2022/05/18 12:41:00;;;;;;;150.98;143.50;;;;;;;;;;5033403;28;20087;-64
2022/05/18 12:43:44;;;;;;;146.65;139.40;;;;;;;;;;5035170;28;20045;-64
2022/05/18 12:46:15;;;;;;;99.32;94.38;;;;;;;;;;5033901;28;20064;-64
2022/05/18 12:48:54;;;;;;;140.82;133.85;;;;;;;;;;5031129;28;20068;-64
2022/05/18 12:51:25;;;;;;;123.90;117.77;;;;;;;;;;5032721;28;20032;-64
2022/05/18 12:53:50;;;;;;;61.03;57.97;;;;;;;;;;5034599;28;20640;-65
2022/05/18 12:56:23;;;;;;;53.05;50.35;;;;;;;;;;5034761;28;20039;-65
2022/05/18 12:59:00;;;;;;;68.43;65.00;;;;;;;;;;5033804;28;20033;-63
2022/05/18 13:01:29;;;;;;;89.80;85.32;;;;;;;;;;5031555;28;20522;-64
2022/05/18 13:04:10;;;;;;;47.83;45.40;;;;;;;;;;5034296;28;20044;-64
2022/05/18 13:06:35;;;;;;;45.35;43.05;;;;;;;;;;5033754;28;20045;-64
2022/05/18 13:09:29;;;;;;;108.53;102.95;;;;;;;;;;5033365;28;20029;-64
2022/05/18 13:12:23;;;;;;;57.00;54.15;;;;;;;;;;5034199;28;20561;-64
2022/05/18 13:15:11;;;;;;;45.58;43.28;;;;;;;;;;5034432;28;20413;-64
2022/05/18 13:18:09;;;;;;;49.47;46.97;;;;;;;;;;5034463;28;20044;-64
2022/05/18 13:20:55;;;;;;;47.22;44.83;;;;;;;;;;5023734;28;20053;-63
2022/05/18 13:23:34;;;;;;;47.72;45.33;;;;;;;;;;5034309;28;20041;-63
2022/05/18 13:26:10;;;;;;;44.90;42.60;;;;;;;;;;5029790;28;20037;-64
2022/05/18 13:28:37;;;;;;;45.65;43.35;;;;;;;;;;5035994;28;20029;-63
2022/05/18 13:31:05;;;;;;;47.30;44.80;;;;;;;;;;5034051;28;20029;-63
2022/05/18 13:33:54;;;;;;;55.00;52.20;;;;;;;;;;5030693;28;20040;-63
2022/05/18 13:36:46;;;;;;;47.10;44.70;;;;;;;;;;5032726;28;20408;-64
2022/05/18 13:39:17;;;;;;;49.90;47.40;;;;;;;;;;5033007;28;20084;-63
2022/05/18 13:41:46;;;;;;;45.55;43.25;;;;;;;;;;5036199;28;20045;-63
2022/05/18 13:44:12;;;;;;;44.80;42.50;;;;;;;;;;5032568;28;20039;-63
2022/05/18 13:46:37;;;;;;;45.33;43.03;;;;;;;;;;5029579;28;20115;-63
2022/05/18 13:49:10;;;;;;;49.80;47.28;;;;;;;;;;5033005;28;20552;-63
2022/05/18 13:51:40;;;;;;;47.08;44.67;;;;;;;;;;5033313;28;20031;-64
2022/05/18 13:54:09;;;;;;;43.28;41.08;;;;;;;;;;5034089;28;20394;-64
2022/05/18 13:56:38;;;;;;;43.88;41.67;;;;;;;;;;5036115;28;20039;-64
2022/05/18 13:59:13;;;;;;;41.90;39.80;;;;;;;;;;5034827;28;20041;-63
2022/05/18 14:01:47;;;;;;;43.50;41.30;;;;;;;;;;5032430;28;20044;-63
2022/05/18 14:04:27;;;;;;;65.95;62.65;;;;;;;;;;5031755;28;20040;-63
2022/05/18 14:06:54;;;;;;;117.80;111.97;;;;;;;;;;5030300;28;20037;-64
2022/05/18 14:09:21;;;;;;;44.40;42.15;;;;;;;;;;5031399;28;20041;-63
2022/05/18 14:11:47;;;;;;;59.97;56.97;;;;;;;;;;5036680;28;20128;-64
2022/05/18 14:14:13;;;;;;;45.40;43.10;;;;;;;;;;5032526;28;20136;-64
2022/05/18 14:16:46;;;;;;;42.70;40.50;;;;;;;;;;5032134;28;20037;-64
2022/05/18 14:19:16;;;;;;;42.47;40.28;;;;;;;;;;5032270;28;20025;-63
2022/05/18 14:21:42;;;;;;;46.45;44.08;;;;;;;;;;5033816;28;20025;-64
2022/05/18 14:24:26;;;;;;;41.85;39.75;;;;;;;;;;5032931;28;20029;-64
2022/05/18 14:27:00;;;;;;;41.28;39.17;;;;;;;;;;5035079;28;20121;-64
2022/05/18 14:29:37;;;;;;;41.60;39.42;;;;;;;;;;5032795;28;20535;-63
2022/05/18 14:32:07;;;;;;;43.08;40.88;;;;;;;;;;5031094;28;20308;-63
2022/05/18 14:34:44;;;;;;;44.30;42.03;;;;;;;;;;5033303;28;20638;-63
2022/05/18 14:37:13;;;;;;;42.70;40.53;;;;;;;;;;5027800;28;20029;-63
2022/05/18 14:39:43;;;;;;;52.45;49.85;;;;;;;;;;5030039;28;20072;-63
2022/05/18 14:42:10;;;;;;;44.65;42.35;;;;;;;;;;5030237;28;20158;-63
2022/05/18 14:44:35;;;;;;;44.90;42.60;;;;;;;;;;5033151;28;20095;-63
2022/05/18 14:47:09;;;;;;;42.95;40.75;;;;;;;;;;5030780;28;20482;-64
2022/05/18 14:49:36;;;;;;;40.63;38.53;;;;;;;;;;5028813;28;20069;-64
2022/05/18 14:52:08;;;;;;;42.00;39.85;;;;;;;;;;5032495;28;20915;-64
2022/05/18 14:54:48;;;;;;;43.85;41.63;;;;;;;;;;5032451;28;20029;-63